createdAt,value
2019-04-22T00:00:36.129Z,12.40
2019-04-22T00:02:42.288Z,12.30
2019-04-22T00:04:53.642Z,12.20
2019-04-22T00:07:03.162Z,12.10
2019-04-22T00:09:11.144Z,12.10
2019-04-22T00:11:23.093Z,12.10
2019-04-22T00:13:25.966Z,12.00
2019-04-22T00:15:18.123Z,12.00
2019-04-22T00:17:36.639Z,12.00
2019-04-22T00:19:45.743Z,12.00
2019-04-22T00:21:35.304Z,11.90
2019-04-22T00:23:37.340Z,11.90
2019-04-22T00:25:46.021Z,11.80
2019-04-22T00:27:47.713Z,11.80
2019-04-22T00:29:59.904Z,11.80
2019-04-22T00:31:58.998Z,11.70
2019-04-22T00:34:06.226Z,11.70
2019-04-22T00:36:14.839Z,11.60
2019-04-22T00:38:18.681Z,11.60
2019-04-22T00:40:21.067Z,11.50
2019-04-22T00:42:21.161Z,11.50
2019-04-22T00:44:33.251Z,11.50
2019-04-22T00:46:36.174Z,11.50
2019-04-22T00:48:33.231Z,11.40
2019-04-22T00:50:40.254Z,11.30
2019-04-22T00:52:43.730Z,11.20
2019-04-22T00:54:47.330Z,11.20
2019-04-22T00:56:47.927Z,11.10
2019-04-22T00:58:46.665Z,11.00
2019-04-22T01:01:00.145Z,11.10
2019-04-22T01:03:01.663Z,11.20
2019-04-22T01:05:04.013Z,11.10
2019-04-22T01:07:09.442Z,11.20
2019-04-22T01:09:11.254Z,11.20
2019-04-22T01:11:16.927Z,11.10
2019-04-22T01:13:22.843Z,11.10
2019-04-22T01:15:23.661Z,11.10
2019-04-22T01:17:27.057Z,11.10
2019-04-22T01:19:34.774Z,11.00
2019-04-22T01:21:36.979Z,10.90
2019-04-22T01:23:34.555Z,10.80
2019-04-22T01:25:39.214Z,10.70
2019-04-22T01:27:34.976Z,10.70
2019-04-22T01:29:39.692Z,10.70
2019-04-22T01:31:34.613Z,10.70
2019-04-22T01:33:40.756Z,10.60
2019-04-22T01:35:58.427Z,10.60
2019-04-22T01:38:00.031Z,10.50
2019-04-22T01:40:12.706Z,10.50
2019-04-22T01:42:10.925Z,10.40
2019-04-22T01:44:27.876Z,10.40
2019-04-22T01:46:29.943Z,10.40
2019-04-22T01:48:26.387Z,10.40
2019-04-22T01:50:31.774Z,10.40
2019-04-22T01:52:32.660Z,10.40
2019-04-22T01:54:43.399Z,10.50
2019-04-22T01:56:40.989Z,10.50
2019-04-22T01:58:38.104Z,10.50
2019-04-22T02:00:49.468Z,10.40
2019-04-22T02:02:48.732Z,10.30
2019-04-22T02:06:57.779Z,10.20
2019-04-22T02:11:07.920Z,10.20
2019-04-22T02:13:11.525Z,10.10
2019-04-22T02:15:13.874Z,10.10
2019-04-22T02:17:22.505Z,10.00
2019-04-22T02:19:29.102Z,9.90
2019-04-22T02:21:13.699Z,9.90
2019-04-22T02:23:45.190Z,9.90
2019-04-22T02:25:34.615Z,9.90
2019-04-22T02:31:45.325Z,9.70
2019-04-22T02:36:15.570Z,9.80
2019-04-22T02:37:54.496Z,9.70
2019-04-22T02:40:10.207Z,9.50
2019-04-22T02:42:03.195Z,9.60
2019-04-22T02:44:09.622Z,9.70
2019-04-22T02:46:22.959Z,9.70
2019-04-22T02:48:26.581Z,9.70
2019-04-22T02:50:08.987Z,9.60
2019-04-22T02:52:25.548Z,9.60
2019-04-22T02:58:38.902Z,9.50
2019-04-22T03:00:38.008Z,9.50
2019-04-22T03:02:46.109Z,9.50
2019-04-22T03:04:41.465Z,9.40
2019-04-22T03:08:45.554Z,9.30
2019-04-22T03:10:56.497Z,9.30
2019-04-22T03:12:54.062Z,9.30
2019-04-22T03:17:17.987Z,9.20
2019-04-22T03:19:13.888Z,9.20
2019-04-22T03:21:07.389Z,9.30
2019-04-22T03:25:43.810Z,9.40
2019-04-22T03:29:18.141Z,9.30
2019-04-22T03:34:22.569Z,9.20
2019-04-22T03:37:48.817Z,9.10
2019-04-22T03:39:55.275Z,9.00
2019-04-22T03:45:51.701Z,9.00
2019-04-22T03:47:59.640Z,8.90
2019-04-22T03:50:06.120Z,8.90
2019-04-22T03:56:32.676Z,8.90
2019-04-22T03:58:30.557Z,8.80
2019-04-22T04:00:29.632Z,8.80
2019-04-22T04:06:29.702Z,8.40
2019-04-22T04:12:51.199Z,8.30
2019-04-22T04:17:00.220Z,8.40
2019-04-22T04:23:14.244Z,8.30
2019-04-22T04:25:19.609Z,8.40
2019-04-22T04:27:18.324Z,8.30
2019-04-22T04:29:26.068Z,8.30
2019-04-22T04:31:24.543Z,8.40
2019-04-22T04:35:40.473Z,8.50
2019-04-22T04:39:26.777Z,8.60
2019-04-22T04:41:33.792Z,8.60
2019-04-22T04:43:35.617Z,8.50
2019-04-22T04:45:47.727Z,8.40
2019-04-22T04:49:52.445Z,8.30
2019-04-22T04:53:57.037Z,8.30
2019-04-22T04:55:57.937Z,8.40
2019-04-22T04:58:09.040Z,8.50
2019-04-22T05:02:04.047Z,8.60
2019-04-22T05:06:12.680Z,8.60
2019-04-22T05:08:16.723Z,8.60
2019-04-22T05:10:23.838Z,8.70
2019-04-22T05:18:29.628Z,8.90
2019-04-22T05:22:35.997Z,9.00
2019-04-22T05:24:40.640Z,9.10
2019-04-22T05:26:40.006Z,9.10
2019-04-22T05:28:42.301Z,9.20
2019-04-22T05:30:43.731Z,9.20
2019-04-22T05:33:01.806Z,9.30
2019-04-22T05:34:52.935Z,9.40
2019-04-22T05:36:58.935Z,9.40
2019-04-22T05:39:00.088Z,9.50
2019-04-22T05:41:02.677Z,9.50
2019-04-22T05:43:01.832Z,9.60
2019-04-22T05:45:10.251Z,9.70
2019-04-22T05:47:14.918Z,9.70
2019-04-22T05:51:21.719Z,9.90
2019-04-22T05:53:20.132Z,9.90
2019-04-22T05:55:43.610Z,10.00
2019-04-22T05:57:26.613Z,10.10
2019-04-22T05:59:36.159Z,10.20
2019-04-22T06:03:39.446Z,10.40
2019-04-22T06:05:43.863Z,10.50
2019-04-22T06:07:47.209Z,10.60
2019-04-22T06:09:55.397Z,10.70
2019-04-22T06:11:50.935Z,10.70
2019-04-22T06:13:57.602Z,10.80
2019-04-22T06:16:03.665Z,10.90
2019-04-22T06:18:16.146Z,11.00
2019-04-22T06:20:09.021Z,11.00
2019-04-22T06:22:23.849Z,11.10
2019-04-22T06:24:23.569Z,11.20
2019-04-22T06:26:31.241Z,11.20
2019-04-22T06:28:38.431Z,11.30
2019-04-22T06:30:28.782Z,11.40
2019-04-22T06:32:51.876Z,11.50
2019-04-22T06:34:44.103Z,11.60
2019-04-22T06:36:47.611Z,11.70
2019-04-22T06:39:00.212Z,11.80
2019-04-22T06:43:01.073Z,11.90
2019-04-22T06:45:02.828Z,12.10
2019-04-22T06:47:00.245Z,12.20
2019-04-22T06:49:03.443Z,12.30
2019-04-22T06:51:02.607Z,12.40
2019-04-22T06:53:26.595Z,12.50
2019-04-22T06:55:30.756Z,12.70
2019-04-22T06:57:11.565Z,12.70
2019-04-22T06:59:18.424Z,12.80
2019-04-22T07:01:35.787Z,12.90
2019-04-22T07:05:27.997Z,13.10
2019-04-22T07:07:34.926Z,13.30
2019-04-22T07:11:38.006Z,13.50
2019-04-22T07:13:43.001Z,13.60
2019-04-22T07:15:59.535Z,13.70
2019-04-22T07:17:49.243Z,13.80
2019-04-22T07:19:47.159Z,13.80
2019-04-22T07:21:57.924Z,14.00
2019-04-22T07:24:14.498Z,14.10
2019-04-22T07:25:58.197Z,14.20
2019-04-22T07:28:05.063Z,14.20
2019-04-22T07:32:39.725Z,14.50
2019-04-22T07:34:22.242Z,14.60
2019-04-22T07:36:42.154Z,14.60
2019-04-22T07:38:26.663Z,14.80
2019-04-22T07:40:28.798Z,15.00
2019-04-22T07:42:32.922Z,15.00
2019-04-22T07:46:43.437Z,15.30
2019-04-22T07:52:44.954Z,15.70
2019-04-22T07:54:53.029Z,15.90
2019-04-22T07:57:04.602Z,16.00
2019-04-22T07:58:55.846Z,16.00
2019-04-22T08:01:03.801Z,16.20
2019-04-22T08:03:06.698Z,16.40
2019-04-22T08:07:14.676Z,16.50
2019-04-22T08:11:30.199Z,16.60
2019-04-22T08:13:17.254Z,16.70
2019-04-22T08:15:30.725Z,16.80
2019-04-22T08:21:35.818Z,17.20
2019-04-22T08:23:35.487Z,17.30
2019-04-22T08:25:41.106Z,17.50
2019-04-22T08:27:46.848Z,17.40
2019-04-22T08:29:53.485Z,17.50
2019-04-22T08:32:05.102Z,17.70
2019-04-22T08:33:54.360Z,17.90
2019-04-22T08:38:01.474Z,17.90
2019-04-22T08:40:08.854Z,18.10
2019-04-22T08:42:16.225Z,18.30
2019-04-22T08:44:07.628Z,18.40
2019-04-22T08:46:25.327Z,18.50
2019-04-22T08:48:16.448Z,18.60
2019-04-22T08:50:19.723Z,18.70
2019-04-22T08:52:29.655Z,18.80
2019-04-22T08:54:31.187Z,18.80
2019-04-22T08:56:45.021Z,18.70
2019-04-22T09:00:44.518Z,18.80
2019-04-22T09:02:49.094Z,19.00
2019-04-22T09:04:45.016Z,19.10
2019-04-22T09:11:00.035Z,19.50
2019-04-22T09:13:00.611Z,19.40
2019-04-22T09:14:57.792Z,19.50
2019-04-22T09:17:13.404Z,19.60
2019-04-22T09:19:24.095Z,19.60
2019-04-22T09:21:18.730Z,19.70
2019-04-22T09:23:23.552Z,19.70
2019-04-22T09:25:22.179Z,19.80
2019-04-22T09:27:34.890Z,19.80
2019-04-22T09:29:30.079Z,20.00
2019-04-22T09:31:31.812Z,20.00
2019-04-22T09:33:31.894Z,20.00
2019-04-22T09:35:43.686Z,20.20
2019-04-22T09:39:53.478Z,20.40
2019-04-22T09:43:54.609Z,20.50
2019-04-22T09:45:52.874Z,20.60
2019-04-22T09:48:05.911Z,20.50
2019-04-22T09:50:03.692Z,20.60
2019-04-22T09:52:06.290Z,20.70
2019-04-22T09:54:14.930Z,20.80
2019-04-22T09:56:09.679Z,20.90
2019-04-22T09:58:20.896Z,20.90
2019-04-22T10:02:28.441Z,21.00
2019-04-22T10:04:25.295Z,21.10
2019-04-22T10:06:34.001Z,21.20
2019-04-22T10:08:40.717Z,21.20
2019-04-22T10:10:48.929Z,21.30
2019-04-22T10:14:45.134Z,21.40
2019-04-22T10:16:59.966Z,21.40
2019-04-22T10:18:52.889Z,21.60
2019-04-22T10:20:54.441Z,21.80
2019-04-22T10:22:59.228Z,21.90
2019-04-22T10:27:01.572Z,22.10
2019-04-22T10:29:11.037Z,22.20
2019-04-22T10:31:14.512Z,22.40
2019-04-22T10:33:23.949Z,22.50
2019-04-22T10:35:15.489Z,22.50
2019-04-22T10:37:18.025Z,22.70
2019-04-22T10:39:18.325Z,22.80
2019-04-22T10:41:20.725Z,22.80
2019-04-22T10:43:23.197Z,22.80
2019-04-22T10:45:26.077Z,23.00
2019-04-22T10:47:28.012Z,23.00
2019-04-22T10:49:30.592Z,23.10
2019-04-22T10:51:32.790Z,23.20
2019-04-22T10:53:35.597Z,23.20
2019-04-22T10:55:40.459Z,23.30
2019-04-22T10:57:41.092Z,23.30
2019-04-22T10:59:44.890Z,23.40
2019-04-22T11:02:11.778Z,23.40
2019-04-22T11:04:14.995Z,23.60
2019-04-22T11:06:17.198Z,23.60
2019-04-22T11:08:27.229Z,23.60
2019-04-22T11:10:41.194Z,23.70
2019-04-22T11:12:29.980Z,23.80
2019-04-22T11:14:30.675Z,24.00
2019-04-22T11:16:32.255Z,24.10
2019-04-22T11:18:33.781Z,24.10
2019-04-22T11:20:35.842Z,24.20
2019-04-22T11:22:38.790Z,24.50
2019-04-22T11:24:41.507Z,24.70
2019-04-22T11:26:43.188Z,24.80
2019-04-22T11:28:49.598Z,24.90
2019-04-22T11:30:52.327Z,25.00
2019-04-22T11:32:55.953Z,25.10
2019-04-22T11:34:58.105Z,25.20
2019-04-22T11:37:01.025Z,25.30
2019-04-22T11:39:07.625Z,25.30
2019-04-22T11:41:09.335Z,25.50
2019-04-22T11:43:12.380Z,25.60
2019-04-22T11:45:15.290Z,25.60
2019-04-22T11:47:17.383Z,25.90
2019-04-22T11:49:19.334Z,25.80
2019-04-22T11:51:22.125Z,26.00
2019-04-22T11:53:24.845Z,26.10
2019-04-22T11:55:46.750Z,26.20
2019-04-22T11:57:49.785Z,26.30
2019-04-22T11:59:51.274Z,26.40
2019-04-22T12:01:52.999Z,26.50
2019-04-22T12:03:55.710Z,26.50
2019-04-22T12:05:57.801Z,26.60
2019-04-22T12:07:59.481Z,26.70
2019-04-22T12:10:13.286Z,27.00
2019-04-22T12:12:07.675Z,27.00
2019-04-22T12:14:13.838Z,27.10
2019-04-22T12:16:15.323Z,27.00
2019-04-22T12:18:17.289Z,27.30
2019-04-22T12:20:20.225Z,27.50
2019-04-22T12:22:25.101Z,27.50
2019-04-22T12:24:27.990Z,27.40
2019-04-22T12:26:30.633Z,27.50
2019-04-22T12:28:32.932Z,27.40
2019-04-22T12:30:35.248Z,27.50
2019-04-22T12:32:36.978Z,27.60
2019-04-22T12:34:39.663Z,27.60
2019-04-22T12:36:42.613Z,27.70
2019-04-22T12:38:45.283Z,27.90
2019-04-22T12:40:54.412Z,28.00
2019-04-22T12:42:51.379Z,28.20
2019-04-22T12:44:54.106Z,28.50
2019-04-22T12:46:56.378Z,28.50
2019-04-22T12:48:58.279Z,28.60
2019-04-22T12:51:04.937Z,28.80
2019-04-22T12:53:10.618Z,28.90
2019-04-22T12:55:09.991Z,29.00
2019-04-22T12:57:12.346Z,29.20
2019-04-22T12:59:14.029Z,29.40
2019-04-22T13:01:15.309Z,29.30
2019-04-22T13:03:17.853Z,29.30
2019-04-22T13:05:20.157Z,29.40
2019-04-22T13:07:21.829Z,29.40
2019-04-22T13:09:23.258Z,29.60
2019-04-22T13:11:30.286Z,29.50
2019-04-22T13:13:28.803Z,29.50
2019-04-22T13:15:30.831Z,29.40
2019-04-22T13:17:32.951Z,29.40
2019-04-22T13:19:34.274Z,29.60
2019-04-22T13:21:36.479Z,29.70
2019-04-22T13:23:39.013Z,29.70
2019-04-22T13:25:40.929Z,29.80
2019-04-22T13:27:44.824Z,29.90
2019-04-22T13:29:46.822Z,30.10
2019-04-22T13:31:48.934Z,29.90
2019-04-22T13:33:53.669Z,30.10
2019-04-22T13:35:54.340Z,30.00
2019-04-22T13:37:57.240Z,30.20
2019-04-22T13:39:59.088Z,29.90
2019-04-22T13:42:03.945Z,29.90
2019-04-22T13:44:03.631Z,29.60
2019-04-22T13:46:06.183Z,29.70
2019-04-22T13:50:49.960Z,29.90
2019-04-22T13:52:48.613Z,30.00
2019-04-22T13:54:00.252Z,29.90
2019-04-22T13:54:48.945Z,29.70
2019-04-22T13:56:43.603Z,29.90
2019-04-22T13:58:39.536Z,30.10
2019-04-22T14:00:36.281Z,30.30
2019-04-22T14:02:48.558Z,30.50
2019-04-22T14:04:52.673Z,30.30
2019-04-22T14:06:54.674Z,30.20
2019-04-22T14:08:56.150Z,30.40
2019-04-22T14:11:10.962Z,30.50
2019-04-22T14:13:01.983Z,30.50
2019-04-22T14:15:06.269Z,30.60
2019-04-22T14:17:09.019Z,30.60
2019-04-22T14:19:11.910Z,30.60
2019-04-22T14:21:14.793Z,30.40
2019-04-22T14:23:17.601Z,30.30
2019-04-22T14:25:18.933Z,30.30
2019-04-22T14:27:30.699Z,30.30
2019-04-22T14:29:26.869Z,30.30
2019-04-22T14:31:28.597Z,30.40
2019-04-22T14:33:30.382Z,30.20
2019-04-22T14:35:31.941Z,30.40
2019-04-22T14:37:34.211Z,30.30
2019-04-22T14:39:35.827Z,30.20
2019-04-22T14:41:55.390Z,30.20
2019-04-22T14:44:23.970Z,30.20
2019-04-22T14:46:20.421Z,30.30
2019-04-22T14:48:11.113Z,30.10
2019-04-22T14:50:14.084Z,29.80
2019-04-22T14:52:15.121Z,30.30
2019-04-22T14:54:13.714Z,30.10
2019-04-22T14:56:00.327Z,30.00
2019-04-22T14:58:01.476Z,30.30
2019-04-22T15:00:09.507Z,30.20
2019-04-22T15:02:11.837Z,30.30
2019-04-22T15:04:13.380Z,30.20
2019-04-22T15:06:15.834Z,29.90
2019-04-22T15:08:17.405Z,30.00
2019-04-22T15:10:20.165Z,30.40
2019-04-22T15:12:31.083Z,30.60
2019-04-22T15:14:25.668Z,30.60
2019-04-22T15:16:38.395Z,30.70
2019-04-22T15:18:44.443Z,30.90
2019-04-22T15:21:02.609Z,30.50
2019-04-22T15:23:04.754Z,30.60
2019-04-22T15:25:06.551Z,30.30
2019-04-22T15:27:08.750Z,30.30
2019-04-22T15:29:11.412Z,30.30
2019-04-22T15:31:13.280Z,30.40
2019-04-22T15:33:15.222Z,30.30
2019-04-22T15:35:17.528Z,30.20
2019-04-22T15:37:20.350Z,30.50
2019-04-22T15:39:25.047Z,30.50
2019-04-22T15:41:26.454Z,30.60
2019-04-22T15:43:33.025Z,30.60
2019-04-22T15:45:34.933Z,30.60
2019-04-22T15:47:37.737Z,30.70
2019-04-22T15:49:40.263Z,30.60
2019-04-22T15:51:42.896Z,30.80
2019-04-22T15:53:45.462Z,31.10
2019-04-22T15:55:47.212Z,31.00
2019-04-22T15:57:49.835Z,30.60
2019-04-22T16:00:08.211Z,30.50
2019-04-22T16:01:58.610Z,30.40
2019-04-22T16:03:58.852Z,30.50
2019-04-22T16:06:02.020Z,30.50
2019-04-22T16:08:03.653Z,30.40
2019-04-22T16:10:05.938Z,30.70
2019-04-22T16:12:18.193Z,30.80
2019-04-22T16:14:15.076Z,31.00
2019-04-22T16:16:16.402Z,30.80
2019-04-22T16:18:18.355Z,31.00
2019-04-22T16:20:22.999Z,31.00
2019-04-22T16:22:25.129Z,31.00
2019-04-22T16:24:29.734Z,30.90
2019-04-22T16:26:40.167Z,30.70
2019-04-22T16:28:43.041Z,30.70
2019-04-22T16:30:45.533Z,30.80
2019-04-22T16:32:47.571Z,30.90
2019-04-22T16:34:49.904Z,30.40
2019-04-22T16:36:52.737Z,30.40
2019-04-22T16:38:55.435Z,30.40
2019-04-22T16:40:58.741Z,30.30
2019-04-22T16:43:03.835Z,30.10
2019-04-22T16:45:05.674Z,29.90
2019-04-22T16:47:08.034Z,29.40
2019-04-22T16:49:29.854Z,28.90
2019-04-22T16:51:32.073Z,28.50
2019-04-22T16:53:34.919Z,28.50
2019-04-22T16:55:36.900Z,28.40
2019-04-22T16:57:39.715Z,27.70
2019-04-22T16:59:42.783Z,27.90
2019-04-22T17:01:46.333Z,27.50
2019-04-22T17:04:07.023Z,26.90
2019-04-22T17:06:11.842Z,26.50
2019-04-22T17:08:14.288Z,25.80
2019-04-22T17:10:15.821Z,25.10
2019-04-22T17:12:17.189Z,24.60
2019-04-22T17:14:29.694Z,24.30
2019-04-22T17:16:21.805Z,23.90
2019-04-22T17:18:23.559Z,23.80
2019-04-22T17:20:25.387Z,23.30
2019-04-22T17:22:27.103Z,22.80
2019-04-22T17:24:35.837Z,22.60
2019-04-22T17:26:54.732Z,22.40
2019-04-22T17:29:04.003Z,22.10
2019-04-22T17:31:04.572Z,21.80
2019-04-22T17:33:06.456Z,21.50
2019-04-22T17:35:08.385Z,21.30
2019-04-22T17:37:18.329Z,21.20
2019-04-22T17:39:27.013Z,21.10
2019-04-22T17:41:28.327Z,21.00
2019-04-22T17:43:59.194Z,20.80
2019-04-22T17:45:54.141Z,21.00
2019-04-22T17:48:14.153Z,20.80
2019-04-22T17:50:16.932Z,20.70
2019-04-22T17:52:23.181Z,20.60
2019-04-22T17:54:19.169Z,20.30
2019-04-22T17:56:27.863Z,20.40
2019-04-22T17:58:34.723Z,20.20
2019-04-22T18:00:32.339Z,20.30
2019-04-22T18:02:32.237Z,20.10
2019-04-22T18:04:29.057Z,20.00
2019-04-22T18:06:58.244Z,19.80
2019-04-22T18:08:50.656Z,19.70
2019-04-22T18:10:54.336Z,19.60
2019-04-22T18:13:09.756Z,19.40
2019-04-22T18:15:04.016Z,19.30
2019-04-22T18:17:07.252Z,19.10
2019-04-22T18:19:10.100Z,19.10
2019-04-22T18:21:08.976Z,19.10
2019-04-22T18:23:04.292Z,19.10
2019-04-22T18:25:11.475Z,19.00
2019-04-22T18:29:28.097Z,18.70
2019-04-22T18:31:21.506Z,18.60
2019-04-22T18:33:33.940Z,18.50
2019-04-22T18:35:42.158Z,18.40
2019-04-22T18:37:42.481Z,18.20
2019-04-22T18:39:52.723Z,18.10
2019-04-22T18:41:48.701Z,18.20
2019-04-22T18:43:59.004Z,18.10
2019-04-22T18:46:05.253Z,18.00
2019-04-22T18:47:53.111Z,18.00
2019-04-22T18:50:03.344Z,17.90
2019-04-22T18:52:18.073Z,17.90
2019-04-22T18:54:18.034Z,17.80
2019-04-22T18:56:25.405Z,17.80
2019-04-22T18:58:21.468Z,17.80
2019-04-22T19:00:23.449Z,17.70
2019-04-22T19:02:28.754Z,17.70
2019-04-22T19:04:40.890Z,17.60
2019-04-22T19:06:56.209Z,17.50
2019-04-22T19:09:05.332Z,17.40
2019-04-22T19:13:41.958Z,17.10
2019-04-22T19:15:13.216Z,17.10
2019-04-22T19:17:21.585Z,17.00
2019-04-22T19:21:16.304Z,17.00
2019-04-22T19:23:22.659Z,16.90
2019-04-22T19:25:17.285Z,16.90
2019-04-22T19:27:31.260Z,16.90
2019-04-22T19:29:31.647Z,16.80
2019-04-22T19:31:37.361Z,16.70
2019-04-22T19:33:39.981Z,16.70
2019-04-22T19:35:37.016Z,16.70
2019-04-22T19:37:42.401Z,16.60
2019-04-22T19:39:52.559Z,16.50
2019-04-22T19:41:59.185Z,16.50
2019-04-22T19:43:56.937Z,16.50
2019-04-22T19:45:58.930Z,16.50
2019-04-22T19:48:03.601Z,16.40
2019-04-22T19:50:15.058Z,16.40
2019-04-22T19:52:12.830Z,16.30
2019-04-22T19:54:13.911Z,16.30
2019-04-22T19:56:10.087Z,16.30
2019-04-22T19:58:18.532Z,16.30
2019-04-22T20:00:22.902Z,16.20
2019-04-22T20:02:51.425Z,16.20
2019-04-22T20:05:24.588Z,16.30
2019-04-22T20:07:15.419Z,16.20
2019-04-22T20:09:26.376Z,16.20
2019-04-22T20:11:29.677Z,16.00
2019-04-22T20:13:30.630Z,16.00
2019-04-22T20:15:28.206Z,15.90
2019-04-22T20:18:11.685Z,16.00
2019-04-22T20:19:45.363Z,15.90
2019-04-22T20:21:40.614Z,15.80
2019-04-22T20:23:39.592Z,15.70
2019-04-22T20:25:44.917Z,15.70
2019-04-22T20:27:58.073Z,15.70
2019-04-22T20:30:02.400Z,15.60
2019-04-22T20:31:59.281Z,15.60
2019-04-22T20:34:09.127Z,15.50
2019-04-22T20:36:12.833Z,15.50
2019-04-22T20:38:12.198Z,15.40
2019-04-22T20:40:19.394Z,15.30
2019-04-22T20:42:31.366Z,15.20
2019-04-22T20:44:28.157Z,15.20
2019-04-22T20:46:24.095Z,15.20
2019-04-22T20:48:22.289Z,15.10
2019-04-22T20:50:39.502Z,15.10
2019-04-22T20:52:39.892Z,15.00
2019-04-22T20:54:40.727Z,15.00
2019-04-22T20:56:37.149Z,15.00
2019-04-22T20:58:46.623Z,15.00
2019-04-22T21:00:40.584Z,14.90
2019-04-22T21:02:44.011Z,14.80
2019-04-22T21:04:44.119Z,14.80
2019-04-22T21:06:55.989Z,14.80
2019-04-22T21:08:59.115Z,14.80
2019-04-22T21:10:57.714Z,14.70
2019-04-22T21:13:05.603Z,14.70
2019-04-22T21:15:13.623Z,14.60
2019-04-22T21:17:17.212Z,14.60
2019-04-22T21:19:28.024Z,14.60
2019-04-22T21:21:29.680Z,14.60
2019-04-22T21:23:24.230Z,14.60
2019-04-22T21:25:23.938Z,14.50
2019-04-22T21:27:35.385Z,14.50
2019-04-22T21:29:30.483Z,14.50
2019-04-22T21:31:43.754Z,14.40
2019-04-22T21:33:44.735Z,14.40
2019-04-22T21:37:50.591Z,14.30
2019-04-22T21:39:46.271Z,14.10
2019-04-22T21:41:51.436Z,14.20
2019-04-22T21:43:58.242Z,14.10
2019-04-22T21:46:04.870Z,14.00
2019-04-22T21:48:13.473Z,14.00
2019-04-22T21:50:31.043Z,14.00
2019-04-22T21:52:13.528Z,14.10
2019-04-22T21:54:21.563Z,14.10
2019-04-22T21:56:36.820Z,13.90
2019-04-22T21:58:27.496Z,13.90
2019-04-22T22:00:45.463Z,14.00
2019-04-22T22:02:46.476Z,13.90
2019-04-22T22:04:41.237Z,13.80
2019-04-22T22:06:40.400Z,13.90
2019-04-22T22:08:52.488Z,13.80
2019-04-22T22:10:51.207Z,13.70
2019-04-22T22:13:00.500Z,13.70
2019-04-22T22:15:04.195Z,13.70
2019-04-22T22:17:00.183Z,13.50
2019-04-22T22:19:22.405Z,13.50
2019-04-22T22:21:25.289Z,13.50
2019-04-22T22:23:22.434Z,13.50
2019-04-22T22:25:19.881Z,13.40
2019-04-22T22:27:20.494Z,13.50
2019-04-22T22:29:40.183Z,13.50
2019-04-22T22:31:38.160Z,13.40
2019-04-22T22:33:33.375Z,13.40
2019-04-22T22:35:39.179Z,13.30
2019-04-22T22:37:26.945Z,13.20
2019-04-22T22:39:35.765Z,13.20
2019-04-22T22:41:23.934Z,13.20
2019-04-22T22:43:33.650Z,13.20
2019-04-22T22:45:37.477Z,13.10
2019-04-22T22:47:53.394Z,13.00
2019-04-22T22:50:00.803Z,13.10
2019-04-22T22:52:26.279Z,13.00
2019-04-22T22:54:03.820Z,13.00
2019-04-22T22:56:13.985Z,13.00
2019-04-22T22:58:14.242Z,12.90
2019-04-22T23:00:15.040Z,13.00
2019-04-22T23:02:20.478Z,12.90
2019-04-22T23:04:28.395Z,12.90
2019-04-22T23:06:32.865Z,12.90
2019-04-22T23:08:34.285Z,13.00
2019-04-22T23:10:34.133Z,12.90
2019-04-22T23:12:40.532Z,12.90
2019-04-22T23:14:37.156Z,12.90
2019-04-22T23:16:31.566Z,12.90
2019-04-22T23:18:25.773Z,12.80
2019-04-22T23:20:34.375Z,12.80
2019-04-22T23:22:58.816Z,12.70
2019-04-22T23:24:55.512Z,12.80
2019-04-22T23:27:03.206Z,12.90
2019-04-22T23:29:10.403Z,12.90
2019-04-22T23:31:14.132Z,12.90
2019-04-22T23:33:40.538Z,12.70
2019-04-22T23:35:42.481Z,12.70
2019-04-22T23:37:52.333Z,12.60
2019-04-22T23:42:00.673Z,12.40
2019-04-22T23:44:02.070Z,12.40
2019-04-22T23:46:02.640Z,12.30
2019-04-22T23:48:05.861Z,12.30
2019-04-22T23:50:08.846Z,12.30
2019-04-22T23:52:19.189Z,12.30
2019-04-22T23:54:24.009Z,12.30
2019-04-22T23:56:28.060Z,12.40
2019-04-22T23:58:44.836Z,12.30
